sensor_id;sensor_type;location;lat;lon;timestamp;temperature;humidity
25708;DHT22;13567;61.652;17.100;2022-07-22T00:01:08;17.90;99.90
25708;DHT22;13567;61.652;17.100;2022-07-22T00:03:35;17.80;99.90
25708;DHT22;13567;61.652;17.100;2022-07-22T00:06:02;17.70;99.90
25708;DHT22;13567;61.652;17.100;2022-07-22T00:08:29;17.70;99.90
25708;DHT22;13567;61.652;17.100;2022-07-22T00:10:56;17.70;99.90
25708;DHT22;13567;61.652;17.100;2022-07-22T00:13:23;17.60;99.90
25708;DHT22;13567;61.652;17.100;2022-07-22T00:15:50;17.60;99.90
25708;DHT22;13567;61.652;17.100;2022-07-22T00:18:17;17.60;99.90
25708;DHT22;13567;61.652;17.100;2022-07-22T00:20:44;17.60;99.90
25708;DHT22;13567;61.652;17.100;2022-07-22T00:23:11;17.60;99.90
25708;DHT22;13567;61.652;17.100;2022-07-22T00:25:38;17.50;99.90
25708;DHT22;13567;61.652;17.100;2022-07-22T00:28:05;17.50;99.90
25708;DHT22;13567;61.652;17.100;2022-07-22T00:30:32;17.40;99.90
25708;DHT22;13567;61.652;17.100;2022-07-22T00:32:59;17.40;99.90
25708;DHT22;13567;61.652;17.100;2022-07-22T00:35:26;17.30;99.90
25708;DHT22;13567;61.652;17.100;2022-07-22T00:37:53;17.30;99.90
25708;DHT22;13567;61.652;17.100;2022-07-22T00:40:20;17.20;99.90
25708;DHT22;13567;61.652;17.100;2022-07-22T00:42:47;17.20;99.90
25708;DHT22;13567;61.652;17.100;2022-07-22T00:45:15;17.10;99.90
25708;DHT22;13567;61.652;17.100;2022-07-22T00:47:43;17.00;99.90
25708;DHT22;13567;61.652;17.100;2022-07-22T00:50:10;17.00;99.90
25708;DHT22;13567;61.652;17.100;2022-07-22T00:52:37;17.00;99.90
25708;DHT22;13567;61.652;17.100;2022-07-22T00:55:05;16.90;99.90
25708;DHT22;13567;61.652;17.100;2022-07-22T00:57:32;16.80;99.90
25708;DHT22;13567;61.652;17.100;2022-07-22T00:59:59;16.80;99.90
25708;DHT22;13567;61.652;17.100;2022-07-22T01:02:26;16.70;99.90
25708;DHT22;13567;61.652;17.100;2022-07-22T01:04:53;16.70;99.90
25708;DHT22;13567;61.652;17.100;2022-07-22T01:07:20;16.70;99.90
25708;DHT22;13567;61.652;17.100;2022-07-22T01:09:47;16.50;99.90
25708;DHT22;13567;61.652;17.100;2022-07-22T01:12:14;16.50;99.90
25708;DHT22;13567;61.652;17.100;2022-07-22T01:14:41;16.40;99.90
25708;DHT22;13567;61.652;17.100;2022-07-22T01:17:08;16.30;99.90
25708;DHT22;13567;61.652;17.100;2022-07-22T01:19:36;16.20;99.90
25708;DHT22;13567;61.652;17.100;2022-07-22T01:22:05;16.20;99.90
25708;DHT22;13567;61.652;17.100;2022-07-22T01:24:32;16.10;99.90
25708;DHT22;13567;61.652;17.100;2022-07-22T01:26:59;16.10;99.90
25708;DHT22;13567;61.652;17.100;2022-07-22T01:29:27;16.10;99.90
25708;DHT22;13567;61.652;17.100;2022-07-22T01:31:54;16.10;99.90
25708;DHT22;13567;61.652;17.100;2022-07-22T01:34:20;16.10;99.90
25708;DHT22;13567;61.652;17.100;2022-07-22T01:36:47;16.00;99.90
25708;DHT22;13567;61.652;17.100;2022-07-22T01:39:14;16.10;99.90
25708;DHT22;13567;61.652;17.100;2022-07-22T01:41:42;16.10;99.90
25708;DHT22;13567;61.652;17.100;2022-07-22T01:44:10;16.00;99.90
25708;DHT22;13567;61.652;17.100;2022-07-22T01:46:37;16.00;99.90
25708;DHT22;13567;61.652;17.100;2022-07-22T01:49:04;15.90;99.90
25708;DHT22;13567;61.652;17.100;2022-07-22T01:51:31;15.90;99.90
25708;DHT22;13567;61.652;17.100;2022-07-22T01:53:58;15.70;99.90
25708;DHT22;13567;61.652;17.100;2022-07-22T01:56:25;15.70;99.90
25708;DHT22;13567;61.652;17.100;2022-07-22T01:58:52;15.70;99.90
25708;DHT22;13567;61.652;17.100;2022-07-22T02:01:19;15.60;99.90
25708;DHT22;13567;61.652;17.100;2022-07-22T02:03:48;15.60;99.90
25708;DHT22;13567;61.652;17.100;2022-07-22T02:06:15;15.60;99.90
25708;DHT22;13567;61.652;17.100;2022-07-22T02:08:42;15.50;99.90
25708;DHT22;13567;61.652;17.100;2022-07-22T02:11:09;15.50;99.90
25708;DHT22;13567;61.652;17.100;2022-07-22T02:13:36;15.40;99.90
25708;DHT22;13567;61.652;17.100;2022-07-22T02:16:03;15.40;99.90
25708;DHT22;13567;61.652;17.100;2022-07-22T02:18:30;15.30;99.90
25708;DHT22;13567;61.652;17.100;2022-07-22T02:20:56;15.20;99.90
25708;DHT22;13567;61.652;17.100;2022-07-22T02:23:23;15.20;99.90
25708;DHT22;13567;61.652;17.100;2022-07-22T02:25:51;15.10;99.90
25708;DHT22;13567;61.652;17.100;2022-07-22T02:28:18;15.10;99.90
25708;DHT22;13567;61.652;17.100;2022-07-22T02:30:45;15.10;99.90
25708;DHT22;13567;61.652;17.100;2022-07-22T02:33:12;15.10;99.90
25708;DHT22;13567;61.652;17.100;2022-07-22T02:35:39;15.00;99.90
25708;DHT22;13567;61.652;17.100;2022-07-22T02:38:06;15.00;99.90
25708;DHT22;13567;61.652;17.100;2022-07-22T02:40:33;15.00;99.90
25708;DHT22;13567;61.652;17.100;2022-07-22T02:43:00;15.00;99.90
25708;DHT22;13567;61.652;17.100;2022-07-22T02:45:27;15.00;99.90
25708;DHT22;13567;61.652;17.100;2022-07-22T02:47:55;14.90;99.90
25708;DHT22;13567;61.652;17.100;2022-07-22T02:50:22;14.90;99.90
25708;DHT22;13567;61.652;17.100;2022-07-22T02:52:50;14.90;99.90
25708;DHT22;13567;61.652;17.100;2022-07-22T02:55:17;14.90;99.90
25708;DHT22;13567;61.652;17.100;2022-07-22T02:57:44;14.90;99.90
25708;DHT22;13567;61.652;17.100;2022-07-22T03:00:13;14.90;99.90
25708;DHT22;13567;61.652;17.100;2022-07-22T03:02:40;14.80;99.90
25708;DHT22;13567;61.652;17.100;2022-07-22T03:05:07;14.80;99.90
25708;DHT22;13567;61.652;17.100;2022-07-22T03:07:34;14.80;99.90
25708;DHT22;13567;61.652;17.100;2022-07-22T03:10:02;14.70;99.90
25708;DHT22;13567;61.652;17.100;2022-07-22T03:12:29;14.70;99.90
25708;DHT22;13567;61.652;17.100;2022-07-22T03:14:56;14.70;99.90
25708;DHT22;13567;61.652;17.100;2022-07-22T03:17:23;14.70;99.90
25708;DHT22;13567;61.652;17.100;2022-07-22T03:19:50;14.70;99.90
25708;DHT22;13567;61.652;17.100;2022-07-22T03:22:17;14.60;99.90
25708;DHT22;13567;61.652;17.100;2022-07-22T03:24:44;14.60;99.90
25708;DHT22;13567;61.652;17.100;2022-07-22T03:27:11;14.60;99.90
25708;DHT22;13567;61.652;17.100;2022-07-22T03:29:38;14.60;99.90
25708;DHT22;13567;61.652;17.100;2022-07-22T03:32:05;14.50;99.90
25708;DHT22;13567;61.652;17.100;2022-07-22T03:34:32;14.50;99.90
25708;DHT22;13567;61.652;17.100;2022-07-22T03:36:59;14.50;99.90
25708;DHT22;13567;61.652;17.100;2022-07-22T03:39:25;14.50;99.90
25708;DHT22;13567;61.652;17.100;2022-07-22T03:41:52;14.50;99.90
25708;DHT22;13567;61.652;17.100;2022-07-22T03:44:19;14.50;99.90
25708;DHT22;13567;61.652;17.100;2022-07-22T03:46:46;14.50;99.90
25708;DHT22;13567;61.652;17.100;2022-07-22T03:49:13;14.50;99.90
25708;DHT22;13567;61.652;17.100;2022-07-22T03:51:40;14.40;99.90
25708;DHT22;13567;61.652;17.100;2022-07-22T03:54:07;14.50;99.90
25708;DHT22;13567;61.652;17.100;2022-07-22T03:56:34;14.50;99.90
25708;DHT22;13567;61.652;17.100;2022-07-22T03:59:01;14.40;99.90
25708;DHT22;13567;61.652;17.100;2022-07-22T04:01:28;14.50;99.90
25708;DHT22;13567;61.652;17.100;2022-07-22T04:03:55;14.50;99.90
25708;DHT22;13567;61.652;17.100;2022-07-22T04:06:30;14.50;99.90
25708;DHT22;13567;61.652;17.100;2022-07-22T04:08:57;14.50;99.90
25708;DHT22;13567;61.652;17.100;2022-07-22T04:11:25;14.60;99.90
25708;DHT22;13567;61.652;17.100;2022-07-22T04:13:53;14.60;99.90
25708;DHT22;13567;61.652;17.100;2022-07-22T04:16:20;14.50;99.90
25708;DHT22;13567;61.652;17.100;2022-07-22T04:18:47;14.60;99.90
25708;DHT22;13567;61.652;17.100;2022-07-22T04:21:14;14.70;99.90
25708;DHT22;13567;61.652;17.100;2022-07-22T04:23:41;14.60;99.90
25708;DHT22;13567;61.652;17.100;2022-07-22T04:26:08;14.60;99.90
25708;DHT22;13567;61.652;17.100;2022-07-22T04:28:35;14.60;99.90
25708;DHT22;13567;61.652;17.100;2022-07-22T04:31:03;14.60;99.90
25708;DHT22;13567;61.652;17.100;2022-07-22T04:33:30;14.60;99.90
25708;DHT22;13567;61.652;17.100;2022-07-22T04:35:57;14.70;99.90
25708;DHT22;13567;61.652;17.100;2022-07-22T04:38:24;14.70;99.90
25708;DHT22;13567;61.652;17.100;2022-07-22T04:40:51;14.70;99.90
25708;DHT22;13567;61.652;17.100;2022-07-22T04:43:20;14.70;99.90
25708;DHT22;13567;61.652;17.100;2022-07-22T04:45:48;14.80;99.90
25708;DHT22;13567;61.652;17.100;2022-07-22T04:48:15;14.80;99.90
25708;DHT22;13567;61.652;17.100;2022-07-22T04:50:43;14.90;99.90
25708;DHT22;13567;61.652;17.100;2022-07-22T04:53:10;14.90;99.90
25708;DHT22;13567;61.652;17.100;2022-07-22T04:55:38;15.00;99.90
25708;DHT22;13567;61.652;17.100;2022-07-22T04:58:05;14.90;99.90
25708;DHT22;13567;61.652;17.100;2022-07-22T05:00:32;14.90;99.90
25708;DHT22;13567;61.652;17.100;2022-07-22T05:02:59;14.80;99.90
25708;DHT22;13567;61.652;17.100;2022-07-22T05:05:26;14.70;99.90
25708;DHT22;13567;61.652;17.100;2022-07-22T05:07:53;14.70;99.90
25708;DHT22;13567;61.652;17.100;2022-07-22T05:10:20;14.60;99.90
25708;DHT22;13567;61.652;17.100;2022-07-22T05:12:47;14.60;99.90
25708;DHT22;13567;61.652;17.100;2022-07-22T05:15:14;14.60;99.90
25708;DHT22;13567;61.652;17.100;2022-07-22T05:17:41;14.50;99.90
25708;DHT22;13567;61.652;17.100;2022-07-22T05:20:09;14.50;99.90
25708;DHT22;13567;61.652;17.100;2022-07-22T05:22:36;14.70;99.90
25708;DHT22;13567;61.652;17.100;2022-07-22T05:25:04;14.70;99.90
25708;DHT22;13567;61.652;17.100;2022-07-22T05:27:31;14.80;99.90
25708;DHT22;13567;61.652;17.100;2022-07-22T05:29:58;14.90;99.90
25708;DHT22;13567;61.652;17.100;2022-07-22T05:32:26;14.90;99.90
25708;DHT22;13567;61.652;17.100;2022-07-22T05:34:52;15.00;99.90
25708;DHT22;13567;61.652;17.100;2022-07-22T05:37:19;15.00;99.90
25708;DHT22;13567;61.652;17.100;2022-07-22T05:39:46;15.00;99.90
25708;DHT22;13567;61.652;17.100;2022-07-22T05:42:13;15.10;99.90
25708;DHT22;13567;61.652;17.100;2022-07-22T05:44:40;15.20;99.90
25708;DHT22;13567;61.652;17.100;2022-07-22T05:47:07;15.30;99.90
25708;DHT22;13567;61.652;17.100;2022-07-22T05:49:34;15.40;99.90
25708;DHT22;13567;61.652;17.100;2022-07-22T05:52:06;15.40;99.90
25708;DHT22;13567;61.652;17.100;2022-07-22T05:54:33;15.50;99.90
25708;DHT22;13567;61.652;17.100;2022-07-22T05:57:00;15.70;99.90
25708;DHT22;13567;61.652;17.100;2022-07-22T05:59:27;15.80;99.90
25708;DHT22;13567;61.652;17.100;2022-07-22T06:01:54;15.80;99.90
25708;DHT22;13567;61.652;17.100;2022-07-22T06:04:21;16.00;99.90
25708;DHT22;13567;61.652;17.100;2022-07-22T06:06:48;16.10;99.90
25708;DHT22;13567;61.652;17.100;2022-07-22T06:09:15;16.00;99.90
25708;DHT22;13567;61.652;17.100;2022-07-22T06:11:42;15.90;99.90
25708;DHT22;13567;61.652;17.100;2022-07-22T06:14:09;16.00;99.90
25708;DHT22;13567;61.652;17.100;2022-07-22T06:16:36;16.00;99.90
25708;DHT22;13567;61.652;17.100;2022-07-22T06:19:04;16.20;99.90
25708;DHT22;13567;61.652;17.100;2022-07-22T06:21:31;16.40;99.90
25708;DHT22;13567;61.652;17.100;2022-07-22T06:23:58;16.50;99.90
25708;DHT22;13567;61.652;17.100;2022-07-22T06:26:24;16.60;99.90
25708;DHT22;13567;61.652;17.100;2022-07-22T06:28:51;16.70;99.90
25708;DHT22;13567;61.652;17.100;2022-07-22T06:31:19;16.70;99.90
25708;DHT22;13567;61.652;17.100;2022-07-22T06:33:46;16.60;99.90
25708;DHT22;13567;61.652;17.100;2022-07-22T06:36:13;16.60;99.90
25708;DHT22;13567;61.652;17.100;2022-07-22T06:38:41;16.40;99.90
25708;DHT22;13567;61.652;17.100;2022-07-22T06:41:07;16.30;99.90
25708;DHT22;13567;61.652;17.100;2022-07-22T06:43:35;16.10;99.90
25708;DHT22;13567;61.652;17.100;2022-07-22T06:46:02;16.00;99.90
25708;DHT22;13567;61.652;17.100;2022-07-22T06:48:29;15.90;99.90
25708;DHT22;13567;61.652;17.100;2022-07-22T06:50:56;15.80;99.90
25708;DHT22;13567;61.652;17.100;2022-07-22T06:53:23;15.80;99.90
25708;DHT22;13567;61.652;17.100;2022-07-22T06:55:50;15.60;99.90
25708;DHT22;13567;61.652;17.100;2022-07-22T06:58:17;15.60;99.90
25708;DHT22;13567;61.652;17.100;2022-07-22T07:00:44;15.50;99.90
25708;DHT22;13567;61.652;17.100;2022-07-22T07:03:11;15.40;99.90
25708;DHT22;13567;61.652;17.100;2022-07-22T07:05:58;15.30;99.90
25708;DHT22;13567;61.652;17.100;2022-07-22T07:08:25;15.30;99.90
25708;DHT22;13567;61.652;17.100;2022-07-22T07:10:52;15.30;99.90
25708;DHT22;13567;61.652;17.100;2022-07-22T07:13:19;15.20;99.90
25708;DHT22;13567;61.652;17.100;2022-07-22T07:15:46;15.20;99.90
25708;DHT22;13567;61.652;17.100;2022-07-22T07:18:13;15.10;99.90
25708;DHT22;13567;61.652;17.100;2022-07-22T07:20:40;15.10;99.90
25708;DHT22;13567;61.652;17.100;2022-07-22T07:23:07;15.10;99.90
25708;DHT22;13567;61.652;17.100;2022-07-22T07:25:34;15.10;99.90
25708;DHT22;13567;61.652;17.100;2022-07-22T07:28:01;15.10;99.90
25708;DHT22;13567;61.652;17.100;2022-07-22T07:30:28;15.10;99.90
25708;DHT22;13567;61.652;17.100;2022-07-22T07:32:55;15.00;99.90
25708;DHT22;13567;61.652;17.100;2022-07-22T07:35:22;15.00;99.90
25708;DHT22;13567;61.652;17.100;2022-07-22T07:37:56;15.00;99.90
25708;DHT22;13567;61.652;17.100;2022-07-22T07:40:23;14.90;99.90
25708;DHT22;13567;61.652;17.100;2022-07-22T07:42:50;14.80;99.90
25708;DHT22;13567;61.652;17.100;2022-07-22T07:45:28;14.80;99.90
25708;DHT22;13567;61.652;17.100;2022-07-22T07:47:56;14.80;99.90
25708;DHT22;13567;61.652;17.100;2022-07-22T07:50:23;14.80;99.90
25708;DHT22;13567;61.652;17.100;2022-07-22T07:52:50;14.70;99.90
25708;DHT22;13567;61.652;17.100;2022-07-22T07:55:20;14.80;99.90
25708;DHT22;13567;61.652;17.100;2022-07-22T07:57:47;14.80;99.90
25708;DHT22;13567;61.652;17.100;2022-07-22T08:00:24;14.70;99.90
25708;DHT22;13567;61.652;17.100;2022-07-22T08:02:55;14.90;99.90
25708;DHT22;13567;61.652;17.100;2022-07-22T08:05:23;14.80;99.90
25708;DHT22;13567;61.652;17.100;2022-07-22T08:07:51;14.90;99.90
25708;DHT22;13567;61.652;17.100;2022-07-22T08:10:19;14.90;99.90
25708;DHT22;13567;61.652;17.100;2022-07-22T08:13:06;14.90;99.90
25708;DHT22;13567;61.652;17.100;2022-07-22T08:15:35;15.00;99.90
25708;DHT22;13567;61.652;17.100;2022-07-22T08:18:03;15.10;99.90
25708;DHT22;13567;61.652;17.100;2022-07-22T08:20:31;15.10;99.90
25708;DHT22;13567;61.652;17.100;2022-07-22T08:22:58;15.20;99.90
25708;DHT22;13567;61.652;17.100;2022-07-22T08:25:26;15.20;99.90
25708;DHT22;13567;61.652;17.100;2022-07-22T08:27:54;15.20;99.90
25708;DHT22;13567;61.652;17.100;2022-07-22T08:30:21;15.20;99.90
25708;DHT22;13567;61.652;17.100;2022-07-22T08:32:50;15.20;99.90
25708;DHT22;13567;61.652;17.100;2022-07-22T08:35:17;15.20;99.90
25708;DHT22;13567;61.652;17.100;2022-07-22T08:37:46;15.30;99.90
25708;DHT22;13567;61.652;17.100;2022-07-22T08:40:15;15.40;99.90
25708;DHT22;13567;61.652;17.100;2022-07-22T08:42:45;15.60;99.90
25708;DHT22;13567;61.652;17.100;2022-07-22T08:45:12;15.60;99.90
25708;DHT22;13567;61.652;17.100;2022-07-22T08:47:49;15.60;99.90
25708;DHT22;13567;61.652;17.100;2022-07-22T08:50:17;15.70;99.90
25708;DHT22;13567;61.652;17.100;2022-07-22T08:52:47;15.70;99.90
25708;DHT22;13567;61.652;17.100;2022-07-22T08:55:14;15.70;99.90
25708;DHT22;13567;61.652;17.100;2022-07-22T08:57:46;15.70;99.90
25708;DHT22;13567;61.652;17.100;2022-07-22T09:00:16;15.80;99.90
25708;DHT22;13567;61.652;17.100;2022-07-22T09:02:45;15.90;99.90
25708;DHT22;13567;61.652;17.100;2022-07-22T09:05:13;16.00;99.90
25708;DHT22;13567;61.652;17.100;2022-07-22T09:08:01;16.00;99.90
25708;DHT22;13567;61.652;17.100;2022-07-22T09:10:32;16.10;99.90
25708;DHT22;13567;61.652;17.100;2022-07-22T09:13:04;16.10;99.90
25708;DHT22;13567;61.652;17.100;2022-07-22T09:15:36;16.20;99.90
25708;DHT22;13567;61.652;17.100;2022-07-22T09:18:04;16.40;99.90
25708;DHT22;13567;61.652;17.100;2022-07-22T09:20:34;16.50;99.90
25708;DHT22;13567;61.652;17.100;2022-07-22T09:23:03;16.60;99.90
25708;DHT22;13567;61.652;17.100;2022-07-22T09:25:36;16.60;99.90
25708;DHT22;13567;61.652;17.100;2022-07-22T09:30:48;16.90;99.90
25708;DHT22;13567;61.652;17.100;2022-07-22T09:33:18;16.90;99.90
25708;DHT22;13567;61.652;17.100;2022-07-22T09:35:47;16.80;99.90
25708;DHT22;13567;61.652;17.100;2022-07-22T09:38:18;16.90;99.90
25708;DHT22;13567;61.652;17.100;2022-07-22T09:40:47;16.90;99.90
25708;DHT22;13567;61.652;17.100;2022-07-22T09:43:19;16.80;99.90
25708;DHT22;13567;61.652;17.100;2022-07-22T09:45:50;16.80;99.90
25708;DHT22;13567;61.652;17.100;2022-07-22T09:48:19;16.80;99.90
25708;DHT22;13567;61.652;17.100;2022-07-22T09:50:48;16.70;99.90
25708;DHT22;13567;61.652;17.100;2022-07-22T09:53:17;16.70;99.90
25708;DHT22;13567;61.652;17.100;2022-07-22T09:55:44;16.70;99.90
25708;DHT22;13567;61.652;17.100;2022-07-22T09:58:12;16.70;99.90
25708;DHT22;13567;61.652;17.100;2022-07-22T10:00:40;16.80;99.90
25708;DHT22;13567;61.652;17.100;2022-07-22T10:03:12;16.80;99.90
25708;DHT22;13567;61.652;17.100;2022-07-22T10:05:41;16.80;99.90
25708;DHT22;13567;61.652;17.100;2022-07-22T10:08:09;17.00;99.90
25708;DHT22;13567;61.652;17.100;2022-07-22T10:10:38;16.90;99.90
25708;DHT22;13567;61.652;17.100;2022-07-22T10:13:07;16.90;99.90
25708;DHT22;13567;61.652;17.100;2022-07-22T10:15:35;16.80;99.90
25708;DHT22;13567;61.652;17.100;2022-07-22T10:18:14;16.90;99.90
25708;DHT22;13567;61.652;17.100;2022-07-22T10:20:41;17.00;99.90
25708;DHT22;13567;61.652;17.100;2022-07-22T10:23:10;17.10;99.90
25708;DHT22;13567;61.652;17.100;2022-07-22T10:25:50;17.10;99.90
25708;DHT22;13567;61.652;17.100;2022-07-22T10:28:35;17.10;99.90
25708;DHT22;13567;61.652;17.100;2022-07-22T10:31:23;17.00;99.90
25708;DHT22;13567;61.652;17.100;2022-07-22T10:33:53;17.00;99.90
25708;DHT22;13567;61.652;17.100;2022-07-22T10:36:34;16.90;99.90
25708;DHT22;13567;61.652;17.100;2022-07-22T10:39:10;16.80;99.90
25708;DHT22;13567;61.652;17.100;2022-07-22T10:41:42;16.70;99.90
25708;DHT22;13567;61.652;17.100;2022-07-22T10:44:47;16.60;99.90
25708;DHT22;13567;61.652;17.100;2022-07-22T10:47:52;16.50;99.90
25708;DHT22;13567;61.652;17.100;2022-07-22T10:53:13;16.60;99.90
25708;DHT22;13567;61.652;17.100;2022-07-22T11:01:07;16.60;99.90
25708;DHT22;13567;61.652;17.100;2022-07-22T11:03:36;16.50;99.90
25708;DHT22;13567;61.652;17.100;2022-07-22T11:08:41;16.40;99.90
25708;DHT22;13567;61.652;17.100;2022-07-22T11:11:09;16.30;99.90
25708;DHT22;13567;61.652;17.100;2022-07-22T11:13:40;16.20;99.90
25708;DHT22;13567;61.652;17.100;2022-07-22T11:16:22;16.10;99.90
25708;DHT22;13567;61.652;17.100;2022-07-22T11:18:55;16.00;99.90
25708;DHT22;13567;61.652;17.100;2022-07-22T11:21:27;15.90;99.90
25708;DHT22;13567;61.652;17.100;2022-07-22T11:23:57;15.90;99.90
25708;DHT22;13567;61.652;17.100;2022-07-22T11:29:00;15.70;99.90
25708;DHT22;13567;61.652;17.100;2022-07-22T11:31:27;15.60;99.90
25708;DHT22;13567;61.652;17.100;2022-07-22T11:34:05;15.60;99.90
25708;DHT22;13567;61.652;17.100;2022-07-22T11:36:38;15.50;99.90
25708;DHT22;13567;61.652;17.100;2022-07-22T11:39:06;15.50;99.90
25708;DHT22;13567;61.652;17.100;2022-07-22T11:41:35;15.50;99.90
25708;DHT22;13567;61.652;17.100;2022-07-22T11:44:02;15.50;99.90
25708;DHT22;13567;61.652;17.100;2022-07-22T11:46:41;15.60;99.90
25708;DHT22;13567;61.652;17.100;2022-07-22T11:49:12;15.60;99.90
25708;DHT22;13567;61.652;17.100;2022-07-22T11:51:40;15.60;99.90
25708;DHT22;13567;61.652;17.100;2022-07-22T11:54:07;15.60;99.90
25708;DHT22;13567;61.652;17.100;2022-07-22T11:56:35;15.70;99.90
25708;DHT22;13567;61.652;17.100;2022-07-22T11:59:03;15.60;99.90
25708;DHT22;13567;61.652;17.100;2022-07-22T12:01:35;15.60;99.90
25708;DHT22;13567;61.652;17.100;2022-07-22T12:04:08;15.50;99.90
25708;DHT22;13567;61.652;17.100;2022-07-22T12:06:41;15.50;99.90
25708;DHT22;13567;61.652;17.100;2022-07-22T12:11:47;15.40;99.90
25708;DHT22;13567;61.652;17.100;2022-07-22T12:14:22;15.40;99.90
25708;DHT22;13567;61.652;17.100;2022-07-22T12:17:19;15.50;99.90
25708;DHT22;13567;61.652;17.100;2022-07-22T12:19:53;15.50;99.90
25708;DHT22;13567;61.652;17.100;2022-07-22T12:22:21;15.50;99.90
25708;DHT22;13567;61.652;17.100;2022-07-22T12:25:00;15.40;99.90
25708;DHT22;13567;61.652;17.100;2022-07-22T12:27:28;15.50;99.90
25708;DHT22;13567;61.652;17.100;2022-07-22T12:29:56;15.50;99.90
25708;DHT22;13567;61.652;17.100;2022-07-22T12:37:30;15.60;99.90
25708;DHT22;13567;61.652;17.100;2022-07-22T12:42:44;15.80;99.90
25708;DHT22;13567;61.652;17.100;2022-07-22T12:45:15;15.90;99.90
25708;DHT22;13567;61.652;17.100;2022-07-22T12:52:53;16.00;99.90
25708;DHT22;13567;61.652;17.100;2022-07-22T12:55:50;16.00;99.90
25708;DHT22;13567;61.652;17.100;2022-07-22T12:58:26;15.90;99.90
25708;DHT22;13567;61.652;17.100;2022-07-22T13:00:57;15.80;99.90
25708;DHT22;13567;61.652;17.100;2022-07-22T13:03:25;15.80;99.90
25708;DHT22;13567;61.652;17.100;2022-07-22T13:05:57;15.80;99.90
25708;DHT22;13567;61.652;17.100;2022-07-22T13:08:25;15.70;99.90
25708;DHT22;13567;61.652;17.100;2022-07-22T13:11:05;15.60;99.90
25708;DHT22;13567;61.652;17.100;2022-07-22T13:13:32;15.40;99.90
25708;DHT22;13567;61.652;17.100;2022-07-22T13:15:59;15.50;99.90
25708;DHT22;13567;61.652;17.100;2022-07-22T13:18:26;15.50;99.90
25708;DHT22;13567;61.652;17.100;2022-07-22T13:20:53;15.50;99.90
25708;DHT22;13567;61.652;17.100;2022-07-22T13:23:20;15.50;99.90
25708;DHT22;13567;61.652;17.100;2022-07-22T13:25:47;15.60;99.90
25708;DHT22;13567;61.652;17.100;2022-07-22T13:28:20;15.60;99.90
25708;DHT22;13567;61.652;17.100;2022-07-22T13:30:47;15.60;99.90
25708;DHT22;13567;61.652;17.100;2022-07-22T13:33:14;15.60;99.90
25708;DHT22;13567;61.652;17.100;2022-07-22T13:35:43;15.70;99.90
25708;DHT22;13567;61.652;17.100;2022-07-22T13:38:10;15.60;99.90
25708;DHT22;13567;61.652;17.100;2022-07-22T13:40:44;15.60;99.90
25708;DHT22;13567;61.652;17.100;2022-07-22T13:43:22;15.60;99.90
25708;DHT22;13567;61.652;17.100;2022-07-22T13:45:51;15.70;99.90
25708;DHT22;13567;61.652;17.100;2022-07-22T13:48:18;15.60;99.90
25708;DHT22;13567;61.652;17.100;2022-07-22T13:50:47;15.60;99.90
25708;DHT22;13567;61.652;17.100;2022-07-22T13:53:14;15.70;99.90
25708;DHT22;13567;61.652;17.100;2022-07-22T13:55:41;15.80;99.90
25708;DHT22;13567;61.652;17.100;2022-07-22T13:58:08;15.90;99.90
25708;DHT22;13567;61.652;17.100;2022-07-22T14:00:35;15.90;99.90
25708;DHT22;13567;61.652;17.100;2022-07-22T14:03:05;16.00;99.90
25708;DHT22;13567;61.652;17.100;2022-07-22T14:05:32;16.00;99.90
25708;DHT22;13567;61.652;17.100;2022-07-22T14:07:59;16.10;99.90
25708;DHT22;13567;61.652;17.100;2022-07-22T14:10:26;16.10;99.90
25708;DHT22;13567;61.652;17.100;2022-07-22T14:12:53;16.20;99.90
25708;DHT22;13567;61.652;17.100;2022-07-22T14:15:21;16.30;99.90
25708;DHT22;13567;61.652;17.100;2022-07-22T14:17:47;16.30;99.90
25708;DHT22;13567;61.652;17.100;2022-07-22T14:20:15;16.30;99.90
25708;DHT22;13567;61.652;17.100;2022-07-22T14:22:42;16.20;99.90
25708;DHT22;13567;61.652;17.100;2022-07-22T14:25:09;16.20;99.90
25708;DHT22;13567;61.652;17.100;2022-07-22T14:27:36;16.20;99.90
25708;DHT22;13567;61.652;17.100;2022-07-22T14:30:04;16.20;99.90
25708;DHT22;13567;61.652;17.100;2022-07-22T14:32:31;16.20;99.90
25708;DHT22;13567;61.652;17.100;2022-07-22T14:34:58;16.20;99.90
25708;DHT22;13567;61.652;17.100;2022-07-22T14:37:25;16.20;99.90
25708;DHT22;13567;61.652;17.100;2022-07-22T14:39:53;16.20;99.90
25708;DHT22;13567;61.652;17.100;2022-07-22T14:42:21;16.30;99.90
25708;DHT22;13567;61.652;17.100;2022-07-22T14:44:47;16.30;99.90
25708;DHT22;13567;61.652;17.100;2022-07-22T14:47:14;16.40;99.90
25708;DHT22;13567;61.652;17.100;2022-07-22T14:49:42;16.50;99.90
25708;DHT22;13567;61.652;17.100;2022-07-22T14:52:08;16.60;99.90
25708;DHT22;13567;61.652;17.100;2022-07-22T14:54:35;16.50;99.90
25708;DHT22;13567;61.652;17.100;2022-07-22T14:57:02;16.50;99.90
25708;DHT22;13567;61.652;17.100;2022-07-22T14:59:29;16.40;99.90
25708;DHT22;13567;61.652;17.100;2022-07-22T15:01:56;16.40;99.90
25708;DHT22;13567;61.652;17.100;2022-07-22T15:04:23;16.40;99.90
25708;DHT22;13567;61.652;17.100;2022-07-22T15:06:50;16.40;99.90
25708;DHT22;13567;61.652;17.100;2022-07-22T15:09:17;16.40;99.90
25708;DHT22;13567;61.652;17.100;2022-07-22T15:11:44;16.30;99.90
25708;DHT22;13567;61.652;17.100;2022-07-22T15:14:11;16.20;99.90
25708;DHT22;13567;61.652;17.100;2022-07-22T15:16:38;16.20;99.90
25708;DHT22;13567;61.652;17.100;2022-07-22T15:19:05;16.30;99.90
25708;DHT22;13567;61.652;17.100;2022-07-22T15:21:32;16.30;99.90
25708;DHT22;13567;61.652;17.100;2022-07-22T15:23:59;16.30;99.90
25708;DHT22;13567;61.652;17.100;2022-07-22T15:26:27;16.30;99.90
25708;DHT22;13567;61.652;17.100;2022-07-22T15:28:54;16.30;99.90
25708;DHT22;13567;61.652;17.100;2022-07-22T15:31:21;16.30;99.90
25708;DHT22;13567;61.652;17.100;2022-07-22T15:33:48;16.30;99.90
25708;DHT22;13567;61.652;17.100;2022-07-22T15:36:16;16.20;99.90
25708;DHT22;13567;61.652;17.100;2022-07-22T15:38:43;16.20;99.90
25708;DHT22;13567;61.652;17.100;2022-07-22T15:41:10;16.20;99.90
25708;DHT22;13567;61.652;17.100;2022-07-22T15:43:39;16.10;99.90
25708;DHT22;13567;61.652;17.100;2022-07-22T15:46:07;16.20;99.90
25708;DHT22;13567;61.652;17.100;2022-07-22T15:48:34;16.10;99.90
25708;DHT22;13567;61.652;17.100;2022-07-22T15:51:01;16.10;99.90
25708;DHT22;13567;61.652;17.100;2022-07-22T15:53:30;15.90;99.90
25708;DHT22;13567;61.652;17.100;2022-07-22T15:55:57;15.90;99.90